Time;durP1;ratioP1;P1;durP2;ratioP2;P2;SDS_P1;SDS_P2;PMS_P1;PMS_P2;Temp;Humidity;BMP_temperature;BMP_pressure;BME280_temperature;BME280_humidity;BME280_pressure;Samples;Min_cycle;Max_cycle;Signal;HPM_P1;HPM_P2
2021/01/16 00:00:31;;;;;;;;;;;;;;;;;;5054445;28;19963;-37
2021/01/16 00:02:57;;;;;;;;;;;;;;;;;;5054307;28;19909;-35
2021/01/16 00:05:23;;;;;;;;;;;;;;;;;;5054341;28;19909;-36
2021/01/16 00:07:49;;;;;;;;;;;;;;;;;;5054437;28;19909;-37
2021/01/16 00:10:15;;;;;;;;;;;;;;;;;;5054345;28;20364;-36
2021/01/16 00:12:41;;;;;;;;;;;;;;;;;;5054446;28;19913;-36
2021/01/16 00:15:07;;;;;;;;;;;;;;;;;;5054418;28;19909;-36
2021/01/16 00:17:33;;;;;;;;;;;;;;;;;;5054072;28;19909;-37
2021/01/16 00:19:58;;;;;;;;;;;;;;;;;;5054020;28;20015;-36
2021/01/16 00:22:24;;;;;;;;;;;;;;;;;;5054332;28;19909;-36
2021/01/16 00:24:50;;;;;;;;;;;;;;;;;;5054408;28;20420;-37
2021/01/16 00:27:16;;;;;;;;;;;;;;;;;;5054062;28;20379;-37
2021/01/16 00:29:42;;;;;;;;;;;;;;;;;;5053865;28;19913;-36
2021/01/16 00:32:08;;;;;;;;;;;;;;;;;;5054053;28;19917;-36
2021/01/16 00:34:34;;;;;;;;;;;;;;;;;;5053867;28;20003;-36
2021/01/16 00:37:00;;;;;;;;;;;;;;;;;;5054044;28;19909;-36
2021/01/16 00:39:26;;;;;;;;;;;;;;;;;;5053981;28;20367;-36
2021/01/16 00:41:52;;;;;;;;;;;;;;;;;;5053916;28;20367;-36
2021/01/16 00:44:18;;;;;;;;;;;;;;;;;;5053631;28;19974;-36
2021/01/16 00:46:44;;;;;;;;;;;;;;;;;;5053847;28;19917;-36
2021/01/16 00:49:10;;;;;;;;;;;;;;;;;;5053810;28;19909;-36
2021/01/16 00:51:36;;;;;;;;;;;;;;;;;;5053713;28;19999;-36
2021/01/16 00:54:01;;;;;;;;;;;;;;;;;;5053706;28;19916;-37
2021/01/16 00:56:27;;;;;;;;;;;;;;;;;;5053207;28;19913;-36
2021/01/16 00:58:53;;;;;;;;;;;;;;;;;;5053831;28;19913;-37
2021/01/16 01:01:19;;;;;;;;;;;;;;;;;;5053776;28;20272;-37
2021/01/16 01:03:45;;;;;;;;;;;;;;;;;;5053531;28;20311;-37
2021/01/16 01:06:11;;;;;;;;;;;;;;;;;;5053281;28;20416;-36
2021/01/16 01:08:37;;;;;;;;;;;;;;;;;;5053228;28;19908;-36
2021/01/16 01:11:03;;;;;;;;;;;;;;;;;;5052915;28;19916;-36
2021/01/16 01:13:29;;;;;;;;;;;;;;;;;;5053112;28;19975;-37
2021/01/16 01:15:55;;;;;;;;;;;;;;;;;;5053089;28;19909;-36
2021/01/16 01:18:21;;;;;;;;;;;;;;;;;;5053363;28;19915;-37
2021/01/16 01:20:47;;;;;;;;;;;;;;;;;;5052036;28;19935;-36
2021/01/16 01:23:13;;;;;;;;;;;;;;;;;;5052916;28;19980;-37
2021/01/16 01:25:39;;;;;;;;;;;;;;;;;;5052853;28;19956;-36
2021/01/16 01:28:04;;;;;;;;;;;;;;;;;;5052590;28;19909;-36
2021/01/16 01:30:30;;;;;;;;;;;;;;;;;;5052690;28;19924;-37
2021/01/16 01:32:56;;;;;;;;;;;;;;;;;;5052787;28;19916;-36
2021/01/16 01:35:22;;;;;;;;;;;;;;;;;;5053099;28;19915;-36
2021/01/16 01:37:48;;;;;;;;;;;;;;;;;;5052851;28;19913;-36
2021/01/16 01:42:48;;;;;;;;;;;;;;;;;;5070976;28;19931;-36
2021/01/16 01:45:14;;;;;;;;;;;;;;;;;;5072575;28;19908;-37
2021/01/16 01:47:40;;;;;;;;;;;;;;;;;;5072553;28;19908;-36
2021/01/16 01:50:06;;;;;;;;;;;;;;;;;;5072463;28;19916;-36
2021/01/16 01:52:32;;;;;;;;;;;;;;;;;;5072586;28;19916;-37
2021/01/16 01:54:58;;;;;;;;;;;;;;;;;;5072441;28;19909;-36
2021/01/16 01:57:23;;;;;;;;;;;;;;;;;;5072260;28;20006;-37
2021/01/16 01:59:49;;;;;;;;;;;;;;;;;;5072342;28;19908;-36
2021/01/16 02:02:15;;;;;;;;;;;;;;;;;;5072520;28;19915;-36
2021/01/16 02:04:41;;;;;;;;;;;;;;;;;;5072465;28;19909;-36
2021/01/16 02:07:07;;;;;;;;;;;;;;;;;;5072256;28;20342;-35
2021/01/16 02:09:33;;;;;;;;;;;;;;;;;;5072688;28;19915;-36
2021/01/16 02:11:59;;;;;;;;;;;;;;;;;;5072316;28;19970;-37
2021/01/16 02:14:25;;;;;;;;;;;;;;;;;;5072531;28;19931;-36
2021/01/16 02:16:51;;;;;;;;;;;;;;;;;;5072140;28;19912;-37
2021/01/16 02:19:17;;;;;;;;;;;;;;;;;;5072034;28;19909;-37
2021/01/16 02:21:43;;;;;;;;;;;;;;;;;;5072016;28;19909;-36
2021/01/16 02:24:09;;;;;;;;;;;;;;;;;;5072083;28;20003;-36
2021/01/16 02:26:35;;;;;;;;;;;;;;;;;;5072168;28;19915;-36
2021/01/16 02:29:01;;;;;;;;;;;;;;;;;;5072302;28;19909;-36
2021/01/16 02:31:27;;;;;;;;;;;;;;;;;;5071634;28;19927;-37
2021/01/16 02:33:53;;;;;;;;;;;;;;;;;;5071977;28;19908;-36
2021/01/16 02:36:19;;;;;;;;;;;;;;;;;;5071954;28;19914;-36
2021/01/16 02:38:45;;;;;;;;;;;;;;;;;;5071853;28;19908;-38
2021/01/16 02:41:11;;;;;;;;;;;;;;;;;;5071591;28;19927;-36
2021/01/16 02:43:37;;;;;;;;;;;;;;;;;;5072065;28;19909;-36
2021/01/16 02:46:03;;;;;;;;;;;;;;;;;;5072053;28;19999;-37
2021/01/16 02:48:29;;;;;;;;;;;;;;;;;;5071842;28;19908;-36
2021/01/16 02:50:55;;;;;;;;;;;;;;;;;;5071750;28;19916;-37
2021/01/16 02:53:21;;;;;;;;;;;;;;;;;;5071781;28;19908;-36
2021/01/16 02:55:47;;;;;;;;;;;;;;;;;;5071785;28;19913;-37
2021/01/16 02:58:13;;;;;;;;;;;;;;;;;;5071537;28;19916;-37
2021/01/16 03:00:39;;;;;;;;;;;;;;;;;;5071929;28;19999;-37
2021/01/16 03:03:05;;;;;;;;;;;;;;;;;;5071854;28;19935;-36
2021/01/16 03:05:31;;;;;;;;;;;;;;;;;;5071693;28;19908;-37
2021/01/16 03:07:56;;;;;;;;;;;;;;;;;;5071642;28;19924;-37
2021/01/16 03:10:22;;;;;;;;;;;;;;;;;;5071550;28;19986;-36
2021/01/16 03:12:48;;;;;;;;;;;;;;;;;;5071471;28;20031;-37
2021/01/16 03:15:14;;;;;;;;;;;;;;;;;;5071630;28;20279;-36
2021/01/16 03:17:40;;;;;;;;;;;;;;;;;;5071514;28;19909;-36
2021/01/16 03:20:06;;;;;;;;;;;;;;;;;;5071689;28;19908;-36
2021/01/16 03:22:32;;;;;;;;;;;;;;;;;;5071515;28;20389;-37
2021/01/16 03:24:58;;;;;;;;;;;;;;;;;;5071513;28;21184;-36
2021/01/16 03:27:24;;;;;;;;;;;;;;;;;;5071306;28;20348;-37
2021/01/16 03:29:50;;;;;;;;;;;;;;;;;;5071472;28;20279;-35
2021/01/16 03:32:16;;;;;;;;;;;;;;;;;;5071488;28;20314;-36
2021/01/16 03:34:42;;;;;;;;;;;;;;;;;;5071455;28;19916;-37
2021/01/16 03:37:08;;;;;;;;;;;;;;;;;;5071500;28;20014;-38
2021/01/16 03:39:33;;;;;;;;;;;;;;;;;;5071675;28;19947;-36
2021/01/16 03:41:59;;;;;;;;;;;;;;;;;;5071021;28;19924;-36
2021/01/16 03:44:25;;;;;;;;;;;;;;;;;;5074027;28;19908;-36
2021/01/16 03:46:51;;;;;;;;;;;;;;;;;;5075348;28;19909;-36
2021/01/16 03:49:17;;;;;;;;;;;;;;;;;;5074852;28;20335;-37
2021/01/16 03:51:43;;;;;;;;;;;;;;;;;;5074683;28;20271;-37
2021/01/16 03:54:09;;;;;;;;;;;;;;;;;;5074871;28;20298;-39
2021/01/16 03:56:35;;;;;;;;;;;;;;;;;;5074598;28;20270;-36
2021/01/16 03:59:01;;;;;;;;;;;;;;;;;;5074418;28;19915;-37
2021/01/16 04:01:27;;;;;;;;;;;;;;;;;;5074487;28;19909;-37
2021/01/16 04:03:53;;;;;;;;;;;;;;;;;;5074747;28;19908;-36
2021/01/16 04:06:19;;;;;;;;;;;;;;;;;;5074404;28;20316;-36
2021/01/16 04:08:45;;;;;;;;;;;;;;;;;;5074495;28;20356;-37
2021/01/16 04:11:11;;;;;;;;;;;;;;;;;;5074476;28;20019;-37
2021/01/16 04:13:37;;;;;;;;;;;;;;;;;;5074366;28;19924;-36
2021/01/16 04:16:03;;;;;;;;;;;;;;;;;;5074552;28;20472;-36
2021/01/16 04:18:29;;;;;;;;;;;;;;;;;;5074223;28;19908;-36
2021/01/16 04:20:55;;;;;;;;;;;;;;;;;;5074181;28;20359;-36
2021/01/16 04:23:20;;;;;;;;;;;;;;;;;;5074159;28;19928;-37
2021/01/16 04:25:46;;;;;;;;;;;;;;;;;;5074167;28;19962;-36
2021/01/16 04:28:12;;;;;;;;;;;;;;;;;;5074103;28;20363;-37
2021/01/16 04:30:38;;;;;;;;;;;;;;;;;;5074000;28;20527;-36
2021/01/16 04:33:04;;;;;;;;;;;;;;;;;;5074009;28;19986;-36
2021/01/16 04:35:30;;;;;;;;;;;;;;;;;;5073924;28;19909;-37
2021/01/16 04:37:56;;;;;;;;;;;;;;;;;;5073898;28;19909;-36
2021/01/16 04:40:22;;;;;;;;;;;;;;;;;;5073877;28;19966;-36
2021/01/16 04:42:48;;;;;;;;;;;;;;;;;;5073546;28;19963;-42
2021/01/16 04:45:14;;;;;;;;;;;;;;;;;;5073929;28;19908;-36
2021/01/16 04:47:40;;;;;;;;;;;;;;;;;;5074070;28;20312;-36
2021/01/16 04:50:06;;;;;;;;;;;;;;;;;;5073614;28;20003;-37
2021/01/16 04:52:32;;;;;;;;;;;;;;;;;;5073557;28;19909;-37
2021/01/16 04:54:58;;;;;;;;;;;;;;;;;;5073453;28;19980;-36
2021/01/16 04:57:24;;;;;;;;;;;;;;;;;;5073369;28;19931;-37
2021/01/16 04:59:50;;;;;;;;;;;;;;;;;;5073448;28;19913;-36
2021/01/16 05:02:16;;;;;;;;;;;;;;;;;;5073376;28;19915;-36
2021/01/16 05:04:42;;;;;;;;;;;;;;;;;;5073475;28;19915;-36
2021/01/16 05:07:08;;;;;;;;;;;;;;;;;;5073291;28;19909;-36
2021/01/16 05:09:34;;;;;;;;;;;;;;;;;;5073240;28;20006;-36
2021/01/16 05:11:59;;;;;;;;;;;;;;;;;;5073295;28;19921;-38
2021/01/16 05:14:26;;;;;;;;;;;;;;;;;;5073282;28;20334;-36
2021/01/16 05:16:52;;;;;;;;;;;;;;;;;;5072999;28;19908;-36
2021/01/16 05:19:18;;;;;;;;;;;;;;;;;;5073022;28;20278;-36
2021/01/16 05:21:44;;;;;;;;;;;;;;;;;;5073110;28;20000;-36
2021/01/16 05:24:14;;;;;;;;;;;;;;;;;;5072999;28;19916;-36
2021/01/16 05:26:39;;;;;;;;;;;;;;;;;;5073154;28;19912;-36
2021/01/16 05:29:05;;;;;;;;;;;;;;;;;;5072764;28;20351;-36
2021/01/16 05:31:31;;;;;;;;;;;;;;;;;;5072787;28;20330;-39
2021/01/16 05:33:57;;;;;;;;;;;;;;;;;;5072833;28;20409;-36
2021/01/16 05:36:23;;;;;;;;;;;;;;;;;;5072792;28;20355;-36
2021/01/16 05:38:49;;;;;;;;;;;;;;;;;;5072695;28;19908;-36
2021/01/16 05:41:15;;;;;;;;;;;;;;;;;;5072623;28;19964;-37
2021/01/16 05:43:41;;;;;;;;;;;;;;;;;;5072492;28;20256;-38
2021/01/16 05:46:07;;;;;;;;;;;;;;;;;;5072526;28;19909;-37
2021/01/16 05:48:33;;;;;;;;;;;;;;;;;;5072534;28;19909;-35
2021/01/16 05:50:59;;;;;;;;;;;;;;;;;;5072385;28;19978;-36
2021/01/16 05:53:25;;;;;;;;;;;;;;;;;;5072466;28;19909;-40
2021/01/16 05:55:51;;;;;;;;;;;;;;;;;;5072574;28;19915;-37
2021/01/16 05:58:17;;;;;;;;;;;;;;;;;;5072429;28;19962;-36
2021/01/16 06:00:43;;;;;;;;;;;;;;;;;;5072589;28;20263;-36
2021/01/16 06:03:09;;;;;;;;;;;;;;;;;;5072328;28;19908;-36
2021/01/16 06:05:35;;;;;;;;;;;;;;;;;;5071798;28;19908;-37
2021/01/16 06:08:01;;;;;;;;;;;;;;;;;;5072144;28;19916;-37
2021/01/16 06:10:27;;;;;;;;;;;;;;;;;;5072193;28;20003;-37
2021/01/16 06:12:54;;;;;;;;;;;;;;;;;;5071745;28;20143;-38
2021/01/16 06:15:20;;;;;;;;;;;;;;;;;;5072223;28;20344;-37
2021/01/16 06:17:46;;;;;;;;;;;;;;;;;;5072337;28;20264;-36
2021/01/16 06:20:12;;;;;;;;;;;;;;;;;;5072376;28;19999;-36
2021/01/16 06:22:38;;;;;;;;;;;;;;;;;;5072162;28;20377;-37
2021/01/16 06:25:04;;;;;;;;;;;;;;;;;;5072068;28;19931;-38
2021/01/16 06:27:30;;;;;;;;;;;;;;;;;;5072035;28;19912;-37
2021/01/16 06:29:56;;;;;;;;;;;;;;;;;;5071930;28;19975;-36
2021/01/16 06:32:22;;;;;;;;;;;;;;;;;;5071775;28;20434;-38
2021/01/16 06:34:48;;;;;;;;;;;;;;;;;;5072369;28;19944;-36
2021/01/16 06:37:14;;;;;;;;;;;;;;;;;;5071953;28;19909;-36
2021/01/16 06:39:40;;;;;;;;;;;;;;;;;;5072219;28;19909;-37
2021/01/16 06:42:06;;;;;;;;;;;;;;;;;;5071710;28;19925;-37
2021/01/16 06:44:31;;;;;;;;;;;;;;;;;;5071646;28;19912;-39
2021/01/16 06:46:57;;;;;;;;;;;;;;;;;;5071864;28;19983;-39
2021/01/16 06:49:23;;;;;;;;;;;;;;;;;;5071845;28;19909;-38
2021/01/16 06:51:49;;;;;;;;;;;;;;;;;;5071789;28;19924;-38
2021/01/16 06:54:15;;;;;;;;;;;;;;;;;;5071943;28;19909;-35
2021/01/16 06:56:41;;;;;;;;;;;;;;;;;;5071760;28;19916;-36
2021/01/16 06:59:07;;;;;;;;;;;;;;;;;;5071558;28;19919;-37
2021/01/16 07:01:33;;;;;;;;;;;;;;;;;;5071607;28;19947;-37
2021/01/16 07:04:00;;;;;;;;;;;;;;;;;;5071753;28;19908;-37
2021/01/16 07:06:25;;;;;;;;;;;;;;;;;;5071786;28;19915;-37
2021/01/16 07:08:52;;;;;;;;;;;;;;;;;;5072254;28;20003;-37
2021/01/16 07:11:18;;;;;;;;;;;;;;;;;;5071453;28;20390;-36
2021/01/16 07:13:44;;;;;;;;;;;;;;;;;;5071814;28;19913;-39
2021/01/16 07:16:10;;;;;;;;;;;;;;;;;;5071458;28;19955;-37
2021/01/16 07:18:36;;;;;;;;;;;;;;;;;;5073311;28;20244;-37
2021/01/16 07:21:02;;;;;;;;;;;;;;;;;;5075343;28;19961;-39
2021/01/16 07:23:28;;;;;;;;;;;;;;;;;;5075322;28;20382;-36
2021/01/16 07:25:54;;;;;;;;;;;;;;;;;;5075311;28;19908;-36
2021/01/16 07:28:20;;;;;;;;;;;;;;;;;;5075523;28;19916;-37
2021/01/16 07:30:46;;;;;;;;;;;;;;;;;;5075173;28;19940;-37
2021/01/16 07:33:12;;;;;;;;;;;;;;;;;;5075151;28;20359;-37
2021/01/16 07:35:38;;;;;;;;;;;;;;;;;;5075117;28;20417;-36
2021/01/16 07:38:04;;;;;;;;;;;;;;;;;;5074992;28;20321;-36
2021/01/16 07:40:30;;;;;;;;;;;;;;;;;;5074822;28;19909;-36
2021/01/16 07:42:56;;;;;;;;;;;;;;;;;;5074987;28;19960;-37
2021/01/16 07:45:22;;;;;;;;;;;;;;;;;;5074886;28;19912;-37
2021/01/16 07:47:47;;;;;;;;;;;;;;;;;;5074831;28;19909;-36
2021/01/16 07:50:13;;;;;;;;;;;;;;;;;;5075088;28;19952;-38
2021/01/16 07:52:39;;;;;;;;;;;;;;;;;;5074773;28;19962;-37
2021/01/16 07:55:05;;;;;;;;;;;;;;;;;;5074726;28;19961;-37
2021/01/16 07:57:33;;;;;;;;;;;;;;;;;;5074801;28;19909;-36
2021/01/16 07:59:58;;;;;;;;;;;;;;;;;;5074358;28;19913;-36
2021/01/16 08:02:24;;;;;;;;;;;;;;;;;;5074772;28;19961;-37
2021/01/16 08:04:50;;;;;;;;;;;;;;;;;;5074808;28;19971;-37
2021/01/16 08:07:16;;;;;;;;;;;;;;;;;;5074696;28;19909;-37
2021/01/16 08:09:42;;;;;;;;;;;;;;;;;;5074464;28;19939;-37
2021/01/16 08:12:08;;;;;;;;;;;;;;;;;;5074346;28;19916;-37
2021/01/16 08:14:34;;;;;;;;;;;;;;;;;;5074455;28;19916;-37
2021/01/16 08:17:00;;;;;;;;;;;;;;;;;;5074348;28;20411;-37
2021/01/16 08:19:26;;;;;;;;;;;;;;;;;;5074439;28;20363;-37
2021/01/16 08:21:52;;;;;;;;;;;;;;;;;;5074250;28;20351;-37
2021/01/16 08:24:18;;;;;;;;;;;;;;;;;;5074049;28;19918;-35
2021/01/16 08:26:44;;;;;;;;;;;;;;;;;;5074186;28;19912;-37
2021/01/16 08:29:10;;;;;;;;;;;;;;;;;;5073663;28;19909;-36
2021/01/16 08:31:36;;;;;;;;;;;;;;;;;;5073843;28;19960;-38
2021/01/16 08:34:02;;;;;;;;;;;;;;;;;;5073969;28;19909;-37
2021/01/16 08:36:28;;;;;;;;;;;;;;;;;;5074061;28;19909;-37
2021/01/16 08:38:54;;;;;;;;;;;;;;;;;;5074043;28;19909;-36
2021/01/16 08:41:20;;;;;;;;;;;;;;;;;;5073724;28;19928;-36
2021/01/16 08:43:46;;;;;;;;;;;;;;;;;;5073843;28;19912;-37
2021/01/16 08:46:12;;;;;;;;;;;;;;;;;;5073956;28;19912;-37
2021/01/16 08:48:38;;;;;;;;;;;;;;;;;;5073731;28;19915;-37
2021/01/16 08:51:04;;;;;;;;;;;;;;;;;;5073496;28;20386;-37
2021/01/16 08:53:30;;;;;;;;;;;;;;;;;;5073613;28;19909;-37
2021/01/16 08:55:56;;;;;;;;;;;;;;;;;;5073766;28;19908;-38
2021/01/16 08:58:22;;;;;;;;;;;;;;;;;;5073569;28;19908;-38
2021/01/16 09:00:47;;;;;;;;;;;;;;;;;;5073642;28;19993;-37
2021/01/16 09:03:16;;;;;;;;;;;;;;;;;;5073429;28;19909;-39
2021/01/16 09:05:42;;;;;;;;;;;;;;;;;;5073466;28;19954;-36
2021/01/16 09:08:08;;;;;;;;;;;;;;;;;;5073556;28;19989;-37
2021/01/16 09:10:34;;;;;;;;;;;;;;;;;;5073296;28;20400;-38
2021/01/16 09:13:00;;;;;;;;;;;;;;;;;;5073702;28;20329;-38
2021/01/16 09:15:26;;;;;;;;;;;;;;;;;;5073293;28;20262;-36
2021/01/16 09:17:52;;;;;;;;;;;;;;;;;;5073235;28;19920;-38
2021/01/16 09:20:17;;;;;;;;;;;;;;;;;;5073070;28;19916;-37
2021/01/16 09:22:43;;;;;;;;;;;;;;;;;;5073045;28;19916;-38
2021/01/16 09:25:09;;;;;;;;;;;;;;;;;;5073222;28;19944;-39
2021/01/16 09:27:35;;;;;;;;;;;;;;;;;;5072937;28;20286;-37
2021/01/16 09:30:01;;;;;;;;;;;;;;;;;;5073015;28;20386;-38
2021/01/16 09:32:27;;;;;;;;;;;;;;;;;;5072801;28;19917;-37
2021/01/16 09:34:53;;;;;;;;;;;;;;;;;;5073047;28;19909;-38
2021/01/16 09:37:19;;;;;;;;;;;;;;;;;;5073018;28;19913;-37
2021/01/16 09:39:45;;;;;;;;;;;;;;;;;;5072762;28;20347;-37
2021/01/16 09:42:11;;;;;;;;;;;;;;;;;;5071771;28;20368;-41
2021/01/16 09:44:37;;;;;;;;;;;;;;;;;;5072678;28;19917;-38
2021/01/16 09:47:03;;;;;;;;;;;;;;;;;;5072595;28;20348;-38
2021/01/16 09:49:29;;;;;;;;;;;;;;;;;;5072704;28;20367;-39
2021/01/16 09:51:55;;;;;;;;;;;;;;;;;;5072452;28;20329;-39
2021/01/16 09:54:21;;;;;;;;;;;;;;;;;;5072540;28;20338;-38
2021/01/16 09:56:47;;;;;;;;;;;;;;;;;;5072544;28;20034;-38
2021/01/16 09:59:14;;;;;;;;;;;;;;;;;;5072615;28;19908;-38
2021/01/16 10:01:40;;;;;;;;;;;;;;;;;;5072404;28;20256;-39
2021/01/16 10:04:06;;;;;;;;;;;;;;;;;;5072572;28;19962;-38
2021/01/16 10:06:32;;;;;;;;;;;;;;;;;;5072655;28;19908;-38
2021/01/16 10:08:57;;;;;;;;;;;;;;;;;;5072532;28;19998;-37
2021/01/16 10:11:23;;;;;;;;;;;;;;;;;;5072219;28;19921;-40
2021/01/16 10:13:49;;;;;;;;;;;;;;;;;;5072237;28;19908;-39
2021/01/16 10:16:15;;;;;;;;;;;;;;;;;;5072010;28;19955;-43
2021/01/16 10:18:42;;;;;;;;;;;;;;;;;;5072336;28;19912;-38
2021/01/16 10:21:08;;;;;;;;;;;;;;;;;;5072049;28;19908;-39
2021/01/16 10:23:34;;;;;;;;;;;;;;;;;;5072506;28;19908;-38
2021/01/16 10:26:00;;;;;;;;;;;;;;;;;;5072078;28;20264;-39
2021/01/16 10:28:26;;;;;;;;;;;;;;;;;;5072072;28;20007;-38
2021/01/16 10:30:52;;;;;;;;;;;;;;;;;;5071952;28;19923;-38
2021/01/16 10:33:18;;;;;;;;;;;;;;;;;;5072360;28;19962;-37
2021/01/16 10:35:44;;;;;;;;;;;;;;;;;;5072522;28;20003;-37
2021/01/16 10:38:09;;;;;;;;;;;;;;;;;;5071977;28;20009;-39
2021/01/16 10:40:35;;;;;;;;;;;;;;;;;;5071907;28;20393;-39
2021/01/16 10:43:01;;;;;;;;;;;;;;;;;;5072011;28;20330;-40
2021/01/16 10:45:27;;;;;;;;;;;;;;;;;;5071929;28;20370;-38
2021/01/16 10:47:53;;;;;;;;;;;;;;;;;;5071697;28;19909;-39
2021/01/16 10:50:19;;;;;;;;;;;;;;;;;;5071812;28;19962;-37
2021/01/16 10:52:45;;;;;;;;;;;;;;;;;;5073735;28;19915;-38
2021/01/16 10:55:11;;;;;;;;;;;;;;;;;;5075798;28;19908;-37
2021/01/16 10:57:37;;;;;;;;;;;;;;;;;;5075872;28;19915;-38
2021/01/16 11:00:09;;;;;;;;;;;;;;;;;;5075987;28;20010;-37
2021/01/16 11:02:36;;;;;;;;;;;;;;;;;;5075916;28;20003;-40
2021/01/16 11:05:02;;;;;;;;;;;;;;;;;;5075621;28;19908;-37
2021/01/16 11:07:28;;;;;;;;;;;;;;;;;;5075658;28;19912;-37
2021/01/16 11:09:54;;;;;;;;;;;;;;;;;;5075569;28;19909;-37
2021/01/16 11:12:20;;;;;;;;;;;;;;;;;;5075559;28;19917;-37
2021/01/16 11:14:46;;;;;;;;;;;;;;;;;;5075806;28;20003;-37
2021/01/16 11:17:12;;;;;;;;;;;;;;;;;;5075312;28;19912;-37
2021/01/16 11:19:38;;;;;;;;;;;;;;;;;;5075855;28;20244;-38
2021/01/16 11:22:03;;;;;;;;;;;;;;;;;;5075833;28;19912;-36
2021/01/16 11:24:29;;;;;;;;;;;;;;;;;;5075306;28;20339;-38
2021/01/16 11:26:55;;;;;;;;;;;;;;;;;;5075288;28;20348;-36
2021/01/16 11:29:21;;;;;;;;;;;;;;;;;;5075185;28;19909;-37
2021/01/16 11:31:47;;;;;;;;;;;;;;;;;;5074948;28;20011;-38
2021/01/16 11:34:18;;;;;;;;;;;;;;;;;;5075044;28;19962;-37
2021/01/16 11:36:44;;;;;;;;;;;;;;;;;;5075317;28;19915;-37
2021/01/16 11:39:10;;;;;;;;;;;;;;;;;;5075146;28;20274;-37
2021/01/16 11:41:35;;;;;;;;;;;;;;;;;;5074987;28;20331;-37
2021/01/16 11:44:01;;;;;;;;;;;;;;;;;;5074918;28;20253;-37
2021/01/16 11:46:27;;;;;;;;;;;;;;;;;;5074842;28;20421;-37
2021/01/16 11:48:53;;;;;;;;;;;;;;;;;;5074947;28;20020;-38
2021/01/16 11:51:22;;;;;;;;;;;;;;;;;;5075091;28;19917;-38
2021/01/16 11:53:48;;;;;;;;;;;;;;;;;;5074895;28;19909;-36
2021/01/16 11:56:14;;;;;;;;;;;;;;;;;;5074979;28;20267;-37
2021/01/16 11:58:41;;;;;;;;;;;;;;;;;;5074732;28;19908;-38
2021/01/16 12:01:07;;;;;;;;;;;;;;;;;;5074718;28;19917;-38
2021/01/16 12:03:33;;;;;;;;;;;;;;;;;;5073724;28;19912;-37
2021/01/16 12:05:59;;;;;;;;;;;;;;;;;;5074397;28;19970;-37
2021/01/16 12:08:25;;;;;;;;;;;;;;;;;;5074544;28;19909;-37
2021/01/16 12:10:51;;;;;;;;;;;;;;;;;;5074399;28;20013;-36
2021/01/16 12:13:17;;;;;;;;;;;;;;;;;;5074533;28;19931;-37
2021/01/16 12:15:43;;;;;;;;;;;;;;;;;;5074332;28;20351;-38
2021/01/16 12:18:09;;;;;;;;;;;;;;;;;;5074340;28;20002;-37
2021/01/16 12:20:35;;;;;;;;;;;;;;;;;;5074279;28;19962;-38
2021/01/16 12:23:01;;;;;;;;;;;;;;;;;;5074243;28;19924;-37
2021/01/16 12:25:27;;;;;;;;;;;;;;;;;;5074185;28;20007;-38
2021/01/16 12:27:53;;;;;;;;;;;;;;;;;;5074197;28;19909;-38
2021/01/16 12:30:19;;;;;;;;;;;;;;;;;;5074230;28;20363;-39
2021/01/16 12:32:45;;;;;;;;;;;;;;;;;;5073901;28;19915;-38
2021/01/16 12:35:11;;;;;;;;;;;;;;;;;;5074416;28;19943;-38
2021/01/16 12:37:37;;;;;;;;;;;;;;;;;;5074145;28;19916;-38
2021/01/16 12:40:03;;;;;;;;;;;;;;;;;;5073967;28;19960;-39
2021/01/16 12:42:29;;;;;;;;;;;;;;;;;;5073701;28;19920;-38
2021/01/16 12:44:54;;;;;;;;;;;;;;;;;;5073876;28;19948;-38
2021/01/16 12:47:20;;;;;;;;;;;;;;;;;;5073640;28;19909;-38
2021/01/16 12:49:46;;;;;;;;;;;;;;;;;;5073914;28;19920;-37
2021/01/16 12:52:12;;;;;;;;;;;;;;;;;;5073803;28;20260;-37
2021/01/16 12:54:38;;;;;;;;;;;;;;;;;;5073716;28;20275;-38
2021/01/16 12:57:04;;;;;;;;;;;;;;;;;;5073620;28;20407;-37
2021/01/16 12:59:30;;;;;;;;;;;;;;;;;;5073596;28;20037;-38
2021/01/16 13:01:56;;;;;;;;;;;;;;;;;;5073475;28;19931;-41
2021/01/16 13:04:22;;;;;;;;;;;;;;;;;;5073320;28;19912;-38
2021/01/16 13:06:48;;;;;;;;;;;;;;;;;;5073583;28;19938;-38
2021/01/16 13:09:14;;;;;;;;;;;;;;;;;;5073502;28;19916;-38
2021/01/16 13:11:40;;;;;;;;;;;;;;;;;;5073164;28;20286;-39
2021/01/16 13:14:06;;;;;;;;;;;;;;;;;;5073288;28;19913;-38
2021/01/16 13:16:32;;;;;;;;;;;;;;;;;;5073233;28;19908;-38
2021/01/16 13:18:58;;;;;;;;;;;;;;;;;;5073028;28;19912;-39
2021/01/16 13:21:23;;;;;;;;;;;;;;;;;;5073371;28;19915;-39
2021/01/16 13:23:49;;;;;;;;;;;;;;;;;;5072849;28;19999;-37
2021/01/16 13:26:18;;;;;;;;;;;;;;;;;;5071500;28;19912;-37
2021/01/16 13:28:44;;;;;;;;;;;;;;;;;;5071742;28;19909;-37
2021/01/16 13:31:10;;;;;;;;;;;;;;;;;;5072834;28;19931;-37
2021/01/16 13:33:36;;;;;;;;;;;;;;;;;;5072753;28;20325;-38
2021/01/16 13:36:02;;;;;;;;;;;;;;;;;;5072877;28;19916;-38
2021/01/16 13:38:28;;;;;;;;;;;;;;;;;;5072748;28;19912;-39
2021/01/16 13:40:54;;;;;;;;;;;;;;;;;;5072597;28;19939;-37
2021/01/16 13:43:20;;;;;;;;;;;;;;;;;;5072686;28;19912;-37
2021/01/16 13:45:46;;;;;;;;;;;;;;;;;;5072796;28;19999;-38
2021/01/16 13:48:12;;;;;;;;;;;;;;;;;;5072411;28;19908;-37
2021/01/16 13:50:38;;;;;;;;;;;;;;;;;;5072489;28;19970;-37
2021/01/16 13:53:04;;;;;;;;;;;;;;;;;;5072500;28;19912;-36
2021/01/16 13:55:30;;;;;;;;;;;;;;;;;;5072543;28;19947;-37
2021/01/16 13:57:55;;;;;;;;;;;;;;;;;;5072401;28;19916;-37
2021/01/16 14:00:21;;;;;;;;;;;;;;;;;;5072362;28;19908;-38
2021/01/16 14:02:47;;;;;;;;;;;;;;;;;;5072728;28;20010;-37
2021/01/16 14:05:13;;;;;;;;;;;;;;;;;;5072606;28;20003;-37
2021/01/16 14:07:39;;;;;;;;;;;;;;;;;;5072546;28;19935;-38
2021/01/16 14:10:05;;;;;;;;;;;;;;;;;;5072287;28;19909;-38
2021/01/16 14:12:31;;;;;;;;;;;;;;;;;;5072184;28;19970;-37
2021/01/16 14:14:57;;;;;;;;;;;;;;;;;;5072442;28;19921;-38
2021/01/16 14:17:23;;;;;;;;;;;;;;;;;;5072195;28;20360;-37
2021/01/16 14:19:49;;;;;;;;;;;;;;;;;;5072201;28;19913;-36
2021/01/16 14:22:15;;;;;;;;;;;;;;;;;;5072269;28;19936;-37
2021/01/16 14:24:41;;;;;;;;;;;;;;;;;;5072061;28;19908;-37
2021/01/16 14:27:07;;;;;;;;;;;;;;;;;;5071694;28;19914;-38
2021/01/16 14:29:33;;;;;;;;;;;;;;;;;;5072199;28;19908;-36
2021/01/16 14:31:59;;;;;;;;;;;;;;;;;;5071907;28;20360;-36
2021/01/16 14:34:25;;;;;;;;;;;;;;;;;;5071857;28;20378;-38
2021/01/16 14:36:51;;;;;;;;;;;;;;;;;;5072005;28;19915;-36
2021/01/16 14:39:17;;;;;;;;;;;;;;;;;;5072121;28;19932;-37
2021/01/16 14:41:43;;;;;;;;;;;;;;;;;;5071684;28;20027;-37
2021/01/16 14:44:09;;;;;;;;;;;;;;;;;;5072108;28;19951;-36
2021/01/16 14:46:35;;;;;;;;;;;;;;;;;;5071964;28;20488;-38
2021/01/16 14:49:07;;;;;;;;;;;;;;;;;;5071982;28;19909;-36
2021/01/16 14:51:33;;;;;;;;;;;;;;;;;;5071987;28;20077;-37
2021/01/16 14:53:59;;;;;;;;;;;;;;;;;;5071840;28;19952;-37
2021/01/16 14:56:25;;;;;;;;;;;;;;;;;;5071846;28;19908;-37
2021/01/16 14:58:51;;;;;;;;;;;;;;;;;;5071874;28;19999;-37
2021/01/16 15:01:17;;;;;;;;;;;;;;;;;;5071909;28;19915;-36
2021/01/16 15:03:44;;;;;;;;;;;;;;;;;;5071763;28;19908;-36
2021/01/16 15:06:10;;;;;;;;;;;;;;;;;;5071405;28;19909;-38
2021/01/16 15:08:36;;;;;;;;;;;;;;;;;;5071677;28;19909;-37
2021/01/16 15:11:02;;;;;;;;;;;;;;;;;;5071598;28;20011;-36
2021/01/16 15:13:28;;;;;;;;;;;;;;;;;;5071628;28;19909;-37
2021/01/16 15:15:54;;;;;;;;;;;;;;;;;;5071511;28;20348;-41
2021/01/16 15:18:20;;;;;;;;;;;;;;;;;;5071771;28;20004;-37
2021/01/16 15:20:46;;;;;;;;;;;;;;;;;;5071443;28;20420;-36
2021/01/16 15:23:11;;;;;;;;;;;;;;;;;;5071547;28;19908;-36
2021/01/16 15:25:37;;;;;;;;;;;;;;;;;;5071468;28;19909;-37
2021/01/16 15:28:03;;;;;;;;;;;;;;;;;;5071504;28;19915;-36
2021/01/16 15:30:29;;;;;;;;;;;;;;;;;;5071376;28;19944;-37
2021/01/16 15:32:56;;;;;;;;;;;;;;;;;;5071364;28;19908;-37
2021/01/16 15:35:21;;;;;;;;;;;;;;;;;;5071568;28;19909;-36
2021/01/16 15:37:47;;;;;;;;;;;;;;;;;;5071422;28;20283;-37
2021/01/16 15:40:13;;;;;;;;;;;;;;;;;;5073827;28;20325;-36
2021/01/16 15:42:39;;;;;;;;;;;;;;;;;;5074866;28;20401;-36
2021/01/16 15:45:05;;;;;;;;;;;;;;;;;;5074950;28;20355;-38
2021/01/16 15:47:31;;;;;;;;;;;;;;;;;;5074923;28;20356;-37
2021/01/16 15:49:57;;;;;;;;;;;;;;;;;;5074725;28;19912;-38
2021/01/16 15:52:23;;;;;;;;;;;;;;;;;;5074919;28;19917;-40
2021/01/16 15:54:49;;;;;;;;;;;;;;;;;;5074732;28;19913;-36
2021/01/16 15:57:18;;;;;;;;;;;;;;;;;;5074760;28;19908;-37
2021/01/16 15:59:44;;;;;;;;;;;;;;;;;;5074906;28;19908;-36
2021/01/16 16:02:09;;;;;;;;;;;;;;;;;;5074642;28;20008;-37
2021/01/16 16:04:35;;;;;;;;;;;;;;;;;;5074485;28;20344;-37
2021/01/16 16:07:01;;;;;;;;;;;;;;;;;;5074581;28;20356;-37
2021/01/16 16:09:27;;;;;;;;;;;;;;;;;;5074441;28;19909;-37
2021/01/16 16:11:53;;;;;;;;;;;;;;;;;;5074580;28;19923;-38
2021/01/16 16:14:19;;;;;;;;;;;;;;;;;;5074437;28;19944;-37
2021/01/16 16:16:45;;;;;;;;;;;;;;;;;;5074357;28;19908;-38
2021/01/16 16:19:11;;;;;;;;;;;;;;;;;;5074396;28;19909;-37
2021/01/16 16:21:37;;;;;;;;;;;;;;;;;;5074615;28;19995;-37
2021/01/16 16:24:03;;;;;;;;;;;;;;;;;;5074661;28;19915;-37
2021/01/16 16:26:29;;;;;;;;;;;;;;;;;;5074439;28;19908;-36
2021/01/16 16:28:55;;;;;;;;;;;;;;;;;;5074341;28;19909;-37
2021/01/16 16:31:21;;;;;;;;;;;;;;;;;;5074068;28;19961;-36
2021/01/16 16:33:47;;;;;;;;;;;;;;;;;;5074069;28;19912;-39
2021/01/16 16:36:13;;;;;;;;;;;;;;;;;;5073918;28;19908;-36
2021/01/16 16:38:39;;;;;;;;;;;;;;;;;;5073990;28;19908;-37